createdAt,value
2023-01-13T00:00:49.300Z,18.20
2023-01-13T00:03:36.184Z,18.83
2023-01-13T00:06:27.877Z,17.97
2023-01-13T00:09:14.070Z,17.63
2023-01-13T00:12:00.654Z,18.60
2023-01-13T00:14:47.055Z,18.30
2023-01-13T00:17:33.497Z,17.90
2023-01-13T00:20:19.855Z,18.02
2023-01-13T00:23:06.170Z,16.73
2023-01-13T00:25:57.078Z,16.27
2023-01-13T00:28:43.440Z,15.80
2023-01-13T00:31:30.619Z,16.17
2023-01-13T00:34:17.657Z,15.93
2023-01-13T00:37:04.369Z,18.08
2023-01-13T00:39:53.767Z,16.77
2023-01-13T00:43:15.312Z,17.80
2023-01-13T00:46:02.781Z,17.30
2023-01-13T00:48:49.825Z,17.58
2023-01-13T00:51:36.038Z,17.37
2023-01-13T00:54:22.497Z,21.10
2023-01-13T00:57:09.571Z,20.92
2023-01-13T00:59:55.780Z,21.65
2023-01-13T01:02:42.249Z,21.37
2023-01-13T01:05:28.811Z,20.70
2023-01-13T01:08:14.976Z,17.80
2023-01-13T01:11:11.785Z,18.27
2023-01-13T01:14:02.059Z,20.27
2023-01-13T01:16:48.411Z,19.08
2023-01-13T01:19:37.486Z,19.37
2023-01-13T01:22:23.725Z,23.45
2023-01-13T01:25:10.411Z,22.00
2023-01-13T01:27:56.843Z,22.48
2023-01-13T01:30:43.361Z,17.67
2023-01-13T01:33:29.832Z,22.05
2023-01-13T01:36:18.962Z,20.65
2023-01-13T01:39:05.690Z,23.47
2023-01-13T01:42:09.939Z,20.73
2023-01-13T01:45:12.064Z,20.83
2023-01-13T01:48:04.958Z,18.87
2023-01-13T01:50:52.538Z,23.73
2023-01-13T01:53:41.765Z,21.50
2023-01-13T01:56:28.448Z,24.73
2023-01-13T01:59:16.279Z,24.73
2023-01-13T02:02:03.203Z,20.90
2023-01-13T02:04:53.585Z,21.20
2023-01-13T02:07:43.598Z,23.17
2023-01-13T02:10:32.189Z,19.70
2023-01-13T02:13:18.884Z,20.63
2023-01-13T02:16:15.458Z,19.27
2023-01-13T02:19:25.985Z,18.40
2023-01-13T02:22:57.904Z,17.55
2023-01-13T02:26:08.695Z,19.45
2023-01-13T02:29:39.515Z,16.37
2023-01-13T02:32:51.076Z,18.70
2023-01-13T02:35:42.145Z,19.63
2023-01-13T02:38:38.306Z,18.83
2023-01-13T02:42:17.360Z,17.92
2023-01-13T02:45:17.915Z,18.67
2023-01-13T02:48:08.970Z,18.50
2023-01-13T02:51:08.353Z,19.48
2023-01-13T02:54:08.732Z,18.25
2023-01-13T02:56:58.162Z,17.95
2023-01-13T02:59:45.174Z,17.83
2023-01-13T03:02:31.531Z,21.02
2023-01-13T03:05:18.194Z,17.58
2023-01-13T03:08:10.162Z,20.17
2023-01-13T03:11:09.817Z,20.13
2023-01-13T03:14:42.038Z,20.42
2023-01-13T03:18:12.431Z,21.17
2023-01-13T03:21:27.741Z,18.60
2023-01-13T03:24:18.228Z,20.45
2023-01-13T03:27:31.495Z,20.92
2023-01-13T03:30:51.027Z,18.87
2023-01-13T03:34:08.045Z,21.65
2023-01-13T03:36:56.800Z,19.52
2023-01-13T03:39:50.878Z,21.80
2023-01-13T03:42:41.679Z,21.27
2023-01-13T03:45:31.364Z,20.85
2023-01-13T03:48:20.425Z,19.67
2023-01-13T03:51:10.561Z,20.38
2023-01-13T03:54:01.815Z,20.20
2023-01-13T03:56:54.824Z,19.42
2023-01-13T03:59:45.683Z,21.10
2023-01-13T04:02:55.069Z,20.60
2023-01-13T04:05:47.603Z,21.23
2023-01-13T04:08:37.020Z,19.13
2023-01-13T04:11:47.172Z,19.25
2023-01-13T04:14:35.112Z,19.20
2023-01-13T04:17:21.793Z,21.23
2023-01-13T04:20:09.191Z,21.80
2023-01-13T04:22:55.721Z,20.25
2023-01-13T04:25:43.621Z,21.95
2023-01-13T04:28:29.858Z,21.73
2023-01-13T04:31:16.393Z,20.85
2023-01-13T04:34:03.107Z,21.02
2023-01-13T04:36:49.448Z,20.33
2023-01-13T04:39:36.144Z,20.90
2023-01-13T04:42:22.641Z,20.67
2023-01-13T04:45:09.972Z,21.37
2023-01-13T04:47:56.505Z,21.77
2023-01-13T04:50:43.012Z,21.38
2023-01-13T04:53:29.107Z,19.90
2023-01-13T04:56:15.035Z,20.33
2023-01-13T04:59:01.542Z,21.65
2023-01-13T05:01:47.971Z,21.45
2023-01-13T05:04:34.550Z,20.87
2023-01-13T05:07:21.029Z,20.05
2023-01-13T05:10:08.336Z,19.85
2023-01-13T05:13:12.723Z,19.93
2023-01-13T05:16:19.750Z,19.60
2023-01-13T05:19:05.870Z,21.02
2023-01-13T05:22:10.402Z,20.80
2023-01-13T05:25:15.412Z,20.17
2023-01-13T05:28:01.569Z,20.83
2023-01-13T05:30:52.548Z,19.90
2023-01-13T05:33:38.573Z,20.47
2023-01-13T05:36:24.518Z,20.00
2023-01-13T05:39:10.737Z,19.98
2023-01-13T05:42:15.293Z,20.93
2023-01-13T05:45:01.418Z,17.73
2023-01-13T05:47:47.954Z,19.08
2023-01-13T05:53:40.882Z,19.43
2023-01-13T05:56:27.141Z,19.95
2023-01-13T05:59:13.463Z,20.30
2023-01-13T06:01:59.976Z,19.53
2023-01-13T06:04:46.405Z,19.38
2023-01-13T06:07:32.869Z,20.00
2023-01-13T06:10:19.212Z,21.53
2023-01-13T06:13:06.577Z,19.08
2023-01-13T06:15:58.007Z,21.02
2023-01-13T06:18:44.471Z,20.63
2023-01-13T06:21:33.044Z,19.63
2023-01-13T06:24:19.406Z,19.85
2023-01-13T06:27:08.214Z,19.77
2023-01-13T06:29:56.646Z,20.23
2023-01-13T06:32:50.469Z,21.40
2023-01-13T06:35:39.461Z,19.75
2023-01-13T06:38:28.909Z,19.73
2023-01-13T06:41:15.836Z,22.63
2023-01-13T06:44:01.801Z,20.50
2023-01-13T06:46:48.588Z,21.65
2023-01-13T06:49:35.044Z,20.07
2023-01-13T06:52:21.867Z,19.45
2023-01-13T06:55:08.479Z,21.33
2023-01-13T06:57:57.698Z,21.27
2023-01-13T07:00:43.898Z,21.23
2023-01-13T07:03:30.477Z,21.45
2023-01-13T07:06:16.782Z,22.43
2023-01-13T07:09:03.142Z,23.10
2023-01-13T07:11:49.777Z,25.27
2023-01-13T07:14:55.027Z,21.08
2023-01-13T07:17:41.026Z,23.37
2023-01-13T07:20:27.319Z,19.55
2023-01-13T07:23:13.712Z,21.02
2023-01-13T07:26:00.239Z,21.77
2023-01-13T07:28:46.456Z,22.92
2023-01-13T07:31:32.818Z,27.35
2023-01-13T10:59:30.072Z,46.17
2023-01-13T11:02:25.860Z,19.63
2023-01-13T11:05:24.833Z,19.58
2023-01-13T11:08:18.881Z,17.27
2023-01-13T11:11:40.388Z,17.07
2023-01-13T11:14:41.451Z,16.65
2023-01-13T11:18:08.133Z,15.57
2023-01-13T11:20:56.588Z,16.07
2023-01-13T11:23:50.318Z,16.48
2023-01-13T11:27:02.102Z,17.00
2023-01-13T11:30:35.665Z,17.03
2023-01-13T11:33:38.805Z,14.68
2023-01-13T11:36:33.214Z,16.50
2023-01-13T11:39:47.624Z,16.40
2023-01-13T11:43:01.369Z,16.03
2023-01-13T11:46:06.870Z,16.08
2023-01-13T11:48:56.279Z,16.30
2023-01-13T11:52:14.033Z,16.70
2023-01-13T11:55:35.997Z,18.58
2023-01-13T11:59:08.391Z,21.92
2023-01-13T12:02:19.712Z,18.43
2023-01-13T12:05:13.698Z,15.85
2023-01-13T12:08:47.260Z,18.23
2023-01-13T12:12:09.271Z,21.55
2023-01-13T12:15:13.612Z,17.03
2023-01-13T12:18:26.793Z,17.05
2023-01-13T12:21:26.945Z,16.23
2023-01-13T12:24:27.929Z,15.13
2023-01-13T12:27:27.979Z,16.45
2023-01-13T12:30:50.783Z,18.40
2023-01-13T12:34:01.103Z,19.63
2023-01-13T12:37:13.465Z,35.85
2023-01-13T12:40:16.009Z,56.00
2023-01-13T12:43:43.891Z,39.55
2023-01-13T12:46:29.949Z,36.80
2023-01-13T12:49:26.319Z,24.05
2023-01-13T12:52:18.426Z,16.90
2023-01-13T12:55:13.874Z,16.57
2023-01-13T12:58:06.024Z,20.63
2023-01-13T13:01:11.980Z,19.88
2023-01-13T13:04:14.091Z,18.57
2023-01-13T13:07:12.861Z,19.77
2023-01-13T13:10:06.105Z,18.75
2023-01-13T13:13:18.076Z,18.65
2023-01-13T13:16:26.550Z,16.57
2023-01-13T13:19:18.907Z,17.63
2023-01-13T13:22:14.590Z,17.27
2023-01-13T13:25:04.064Z,15.80
2023-01-13T13:28:18.367Z,17.38
2023-01-13T13:31:35.267Z,19.58
2023-01-13T13:34:30.502Z,20.63
2023-01-13T13:37:58.979Z,21.52
2023-01-13T13:41:05.500Z,19.13
2023-01-13T13:44:10.592Z,21.63
2023-01-13T13:47:01.895Z,22.03
2023-01-13T13:49:53.805Z,21.08
2023-01-13T13:53:02.280Z,19.83
2023-01-13T13:56:01.714Z,18.83
2023-01-13T13:58:49.444Z,20.90
2023-01-13T14:01:39.015Z,20.88
2023-01-13T14:04:30.060Z,20.40
2023-01-13T14:07:22.514Z,20.48
2023-01-13T14:10:28.561Z,23.17
2023-01-13T14:13:22.238Z,20.83
2023-01-13T14:16:14.946Z,20.93
2023-01-13T14:19:01.220Z,20.67
2023-01-13T14:21:48.466Z,19.05
2023-01-13T14:24:45.741Z,19.43
2023-01-13T14:27:31.750Z,20.23
2023-01-13T14:30:19.509Z,20.05
2023-01-13T14:33:06.491Z,19.43
2023-01-13T14:36:18.586Z,20.55
2023-01-13T14:39:04.769Z,19.25
2023-01-13T14:41:51.110Z,19.85
2023-01-13T14:44:37.579Z,19.63
2023-01-13T14:47:29.011Z,22.23
2023-01-13T14:50:28.012Z,22.48
2023-01-13T14:53:46.263Z,23.50
2023-01-13T14:56:53.672Z,22.23
2023-01-13T15:00:11.962Z,21.05
2023-01-13T15:02:58.222Z,19.37
2023-01-13T15:05:52.957Z,20.88
2023-01-13T15:08:40.518Z,19.88
2023-01-13T15:11:28.974Z,21.00
2023-01-13T15:14:23.349Z,21.20
2023-01-13T15:17:16.783Z,20.13
2023-01-13T15:20:03.507Z,20.05
2023-01-13T15:22:51.969Z,19.93
2023-01-13T15:25:43.201Z,20.08
2023-01-13T15:28:32.175Z,21.90
2023-01-13T15:31:19.765Z,21.13
2023-01-13T15:34:05.895Z,23.05
2023-01-13T15:36:52.309Z,21.70
2023-01-13T15:39:38.873Z,21.88
2023-01-13T15:42:43.162Z,21.20
2023-01-13T15:45:49.742Z,21.88
2023-01-13T15:48:36.440Z,20.98
2023-01-13T15:51:23.209Z,20.60
2023-01-13T15:54:09.784Z,21.95
2023-01-13T15:56:56.548Z,22.50
2023-01-13T15:59:42.646Z,24.47
2023-01-13T16:02:30.945Z,22.85
2023-01-13T19:29:09.960Z,28.15
2023-01-13T19:31:57.151Z,27.60
2023-01-13T19:34:44.667Z,23.23
2023-01-13T19:37:31.544Z,24.17
2023-01-13T19:40:17.995Z,22.75
2023-01-13T19:43:22.789Z,28.10
2023-01-13T19:46:09.919Z,23.88
2023-01-13T19:48:56.344Z,20.58
2023-01-13T19:51:42.383Z,24.63
2023-01-13T19:54:28.671Z,24.73
2023-01-13T19:57:15.730Z,21.42
2023-01-13T20:00:02.796Z,22.40
2023-01-13T20:03:03.296Z,21.35
2023-01-13T20:05:53.571Z,22.05
2023-01-13T20:08:40.228Z,21.52
2023-01-13T20:11:31.408Z,21.47
2023-01-13T20:14:17.409Z,21.27
2023-01-13T20:17:03.864Z,22.65
2023-01-13T20:19:50.157Z,21.27
2023-01-13T20:22:40.731Z,23.35
2023-01-13T20:25:28.966Z,21.90
2023-01-13T20:28:15.214Z,21.80
2023-01-13T20:31:05.852Z,21.08
2023-01-13T20:33:52.114Z,21.15
2023-01-13T20:36:39.046Z,21.02
2023-01-13T20:39:26.640Z,20.87
2023-01-13T20:42:31.959Z,32.83
2023-01-13T20:45:20.849Z,24.25
2023-01-13T20:48:07.356Z,24.23
2023-01-13T20:50:55.151Z,22.98
2023-01-13T20:53:41.605Z,24.52
2023-01-13T20:56:28.150Z,21.93
2023-01-13T20:59:14.096Z,23.05
2023-01-13T21:02:00.575Z,22.30
2023-01-13T21:04:46.961Z,22.73
2023-01-13T21:07:33.408Z,25.10
2023-01-13T21:10:19.883Z,24.38
2023-01-13T21:13:24.586Z,25.10
2023-01-13T21:16:10.776Z,23.90
2023-01-13T21:19:10.582Z,23.20
2023-01-13T21:21:57.210Z,23.70
2023-01-13T21:24:43.525Z,23.63
2023-01-13T21:27:31.214Z,27.67
2023-01-13T21:30:18.046Z,23.75
2023-01-13T21:33:06.253Z,23.25
2023-01-13T21:35:52.537Z,23.07
2023-01-13T21:38:38.867Z,25.17
2023-01-13T21:41:44.871Z,23.10
2023-01-13T21:44:49.368Z,24.60
2023-01-13T21:47:50.565Z,25.02
2023-01-13T21:50:38.166Z,36.47
2023-01-13T21:53:24.709Z,25.73
2023-01-13T21:56:10.853Z,23.00
2023-01-13T21:58:57.445Z,25.15
2023-01-13T22:02:23.213Z,23.50
2023-01-13T22:04:49.719Z,23.20
2023-01-13T22:07:38.370Z,22.52
2023-01-13T22:10:29.757Z,24.80
2023-01-13T22:13:34.434Z,23.80
2023-01-13T22:16:20.994Z,24.40
2023-01-13T22:19:09.614Z,25.05
2023-01-13T22:21:55.680Z,23.33
2023-01-13T22:24:43.643Z,27.67
2023-01-13T22:27:30.888Z,26.83
2023-01-13T22:30:21.719Z,22.85
2023-01-13T22:33:07.969Z,23.70
2023-01-13T22:35:56.039Z,24.15
2023-01-13T22:38:42.508Z,22.48
2023-01-13T22:41:28.975Z,23.90
2023-01-13T22:44:15.437Z,24.17
2023-01-13T22:47:01.761Z,22.98
2023-01-13T22:49:48.221Z,23.03
2023-01-13T22:52:35.651Z,23.40
2023-01-13T22:55:21.807Z,22.60
2023-01-13T22:58:08.131Z,23.08
2023-01-13T23:00:55.830Z,22.80
2023-01-13T23:03:45.268Z,23.00
2023-01-13T23:06:34.052Z,23.35
2023-01-13T23:09:20.753Z,22.60
2023-01-13T23:12:06.958Z,22.38
2023-01-13T23:14:53.039Z,22.60
2023-01-13T23:17:39.017Z,22.20
2023-01-13T23:20:25.394Z,23.00
2023-01-13T23:23:11.888Z,21.70
2023-01-13T23:25:58.253Z,22.95
2023-01-13T23:28:44.608Z,23.47
2023-01-13T23:31:30.940Z,22.58
2023-01-13T23:34:17.257Z,22.15
2023-01-13T23:37:04.110Z,22.47
2023-01-13T23:39:51.061Z,23.48
2023-01-13T23:42:37.408Z,21.58
2023-01-13T23:45:24.035Z,22.37
2023-01-13T23:48:10.490Z,23.05
2023-01-13T23:50:59.038Z,21.58
2023-01-13T23:53:47.245Z,22.02
2023-01-13T23:56:34.955Z,22.90
2023-01-13T23:59:21.472Z,22.02
